Portada
METAR-TAF:

METAR-TAF

Aeropuertos :

Aeropuerto Juan Pablo II

Ponta Delgada, Azores, Portugal

latitud: 37-44N, longitud: 025-42W, altitud: 71 m

Observación

El informe se hizo hace 13 minutos, a las 01:30 UTC
Viento 6 kt del norte
Temperatura 14°C
Humedad 67%
Presión 1026 hPa
Visibilidad 10 km o más
Escasas nubes a una altura de 2000 ft

METAR: LPPD 290130Z 36006KT 9999 FEW020 14/08 Q1026

Hora: 01:43 (01:43 UTC)

Pronóstico

El informe se hizo hace 2 horas y 43 minutos, a las 23:00 UTC
Pronóstico válido del 29 a las 00 UTC al 29 a las 24 UTC
Viento 5 kt con dirección variable
Visibilidad 10 km o más
Nubes dispersas a una altura de 2000 ft

TAF: LPPD 282300Z 2900/2924 VRB05KT 9999 SCT020

Observaciones y pronósticos meteorológicos de más de 4000 aeropuertos (mensajes METAR y TAF).

Los puntos amarillos y rojos representan las estaciones disponibles.

Ponga el ratón en el punto deseado para ver el nombre de la estación.

Haga clic para ver las observaciones y los pronósticos meteorológicos.

Para cambiar el mapa : haga clic en los botones verdes con una cruz de color negro para hacer un zoom, en el botón verde con un guión para alejar o en las flechas verdes para mapas adyacentes.


METAR-TAF: